sensor_id;sensor_type;location;lat;lon;timestamp;pressure;altitude;pressure_sealevel;temperature;humidity
7075;BME280;3578;51.568;6.932;2023-04-24T00:01:38;52654.91;;;-144.14;86.83
7075;BME280;3578;51.568;6.932;2023-04-24T00:04:05;52632.88;;;-144.14;86.75
7075;BME280;3578;51.568;6.932;2023-04-24T00:06:36;52616.84;;;-144.14;86.37
7075;BME280;3578;51.568;6.932;2023-04-24T00:09:04;52648.91;;;-144.14;85.54
7075;BME280;3578;51.568;6.932;2023-04-24T00:11:31;52688.97;;;-144.14;85.51
7075;BME280;3578;51.568;6.932;2023-04-24T00:13:58;52690.97;;;-144.14;85.78
7075;BME280;3578;51.568;6.932;2023-04-24T00:16:25;52672.94;;;-144.14;85.96
7075;BME280;3578;51.568;6.932;2023-04-24T00:18:54;52670.94;;;-144.14;85.48
7075;BME280;3578;51.568;6.932;2023-04-24T00:21:21;52680.97;;;-144.14;85.95
7075;BME280;3578;51.568;6.932;2023-04-24T00:23:51;52686.97;;;-144.14;85.08
7075;BME280;3578;51.568;6.932;2023-04-24T00:26:18;52690.97;;;-144.14;85.67
7075;BME280;3578;51.568;6.932;2023-04-24T00:28:45;52711.00;;;-144.14;85.84
7075;BME280;3578;51.568;6.932;2023-04-24T00:31:12;52670.94;;;-144.14;85.98
7075;BME280;3578;51.568;6.932;2023-04-24T00:33:39;52656.91;;;-144.14;86.23
7075;BME280;3578;51.568;6.932;2023-04-24T00:36:08;52648.91;;;-144.14;85.91
7075;BME280;3578;51.568;6.932;2023-04-24T00:38:35;52699.00;;;-144.14;86.41
7075;BME280;3578;51.568;6.932;2023-04-24T00:41:02;52692.97;;;-144.14;85.91
7075;BME280;3578;51.568;6.932;2023-04-24T00:43:29;52729.03;;;-144.14;85.56
7075;BME280;3578;51.568;6.932;2023-04-24T00:45:56;52694.97;;;-144.14;86.09
7075;BME280;3578;51.568;6.932;2023-04-24T00:48:25;52713.00;;;-144.14;85.90
7075;BME280;3578;51.568;6.932;2023-04-24T00:50:53;52729.03;;;-144.14;85.61
7075;BME280;3578;51.568;6.932;2023-04-24T00:53:21;52729.03;;;-144.14;84.32
7075;BME280;3578;51.568;6.932;2023-04-24T00:55:48;52723.03;;;-144.14;84.01
7075;BME280;3578;51.568;6.932;2023-04-24T00:58:15;52721.03;;;-144.14;83.75
7075;BME280;3578;51.568;6.932;2023-04-24T01:00:43;52769.13;;;-144.14;83.59
7075;BME280;3578;51.568;6.932;2023-04-24T01:03:10;52735.06;;;-144.14;83.69
7075;BME280;3578;51.568;6.932;2023-04-24T01:05:39;52739.06;;;-144.14;84.02
7075;BME280;3578;51.568;6.932;2023-04-24T01:08:06;52731.06;;;-144.14;83.77
7075;BME280;3578;51.568;6.932;2023-04-24T01:10:35;52767.13;;;-144.14;84.13
7075;BME280;3578;51.568;6.932;2023-04-24T01:13:03;52731.06;;;-144.14;84.20
7075;BME280;3578;51.568;6.932;2023-04-24T01:15:30;52735.06;;;-144.14;83.66
7075;BME280;3578;51.568;6.932;2023-04-24T01:17:57;52731.06;;;-144.14;84.19
7075;BME280;3578;51.568;6.932;2023-04-24T01:20:25;52731.06;;;-144.14;84.49
7075;BME280;3578;51.568;6.932;2023-04-24T01:22:54;52733.06;;;-144.14;85.01
7075;BME280;3578;51.568;6.932;2023-04-24T01:25:22;52711.00;;;-144.14;84.61
7075;BME280;3578;51.568;6.932;2023-04-24T01:27:49;52711.00;;;-144.14;85.06
7075;BME280;3578;51.568;6.932;2023-04-24T01:30:17;52723.03;;;-144.14;84.90
7075;BME280;3578;51.568;6.932;2023-04-24T01:32:44;52701.00;;;-144.14;85.64
7075;BME280;3578;51.568;6.932;2023-04-24T01:35:12;52650.91;;;-144.14;86.09
7075;BME280;3578;51.568;6.932;2023-04-24T01:37:39;52694.97;;;-144.14;86.23
7075;BME280;3578;51.568;6.932;2023-04-24T01:40:09;52608.81;;;-144.14;86.72
7075;BME280;3578;51.568;6.932;2023-04-24T01:42:36;52624.84;;;-144.14;87.31
7075;BME280;3578;51.568;6.932;2023-04-24T01:45:05;52630.88;;;-144.14;88.16
7075;BME280;3578;51.568;6.932;2023-04-24T01:47:32;52604.81;;;-144.14;87.67
7075;BME280;3578;51.568;6.932;2023-04-24T01:49:59;52612.81;;;-144.14;87.21
7075;BME280;3578;51.568;6.932;2023-04-24T01:52:26;52614.84;;;-144.14;88.90
7075;BME280;3578;51.568;6.932;2023-04-24T01:54:59;52586.78;;;-144.14;88.58
7075;BME280;3578;51.568;6.932;2023-04-24T01:57:27;52580.78;;;-144.14;88.55
7075;BME280;3578;51.568;6.932;2023-04-24T01:59:56;52598.81;;;-144.14;88.60
7075;BME280;3578;51.568;6.932;2023-04-24T02:02:23;52614.84;;;-144.14;88.82
7075;BME280;3578;51.568;6.932;2023-04-24T02:04:53;52572.75;;;-144.14;88.84
7075;BME280;3578;51.568;6.932;2023-04-24T02:07:20;52602.81;;;-144.14;88.56
7075;BME280;3578;51.568;6.932;2023-04-24T02:09:46;52606.81;;;-144.14;89.06
7075;BME280;3578;51.568;6.932;2023-04-24T02:12:13;52616.84;;;-144.14;88.38
7075;BME280;3578;51.568;6.932;2023-04-24T02:14:42;52588.78;;;-144.14;88.66
7075;BME280;3578;51.568;6.932;2023-04-24T02:17:09;52644.88;;;-144.14;88.58
7075;BME280;3578;51.568;6.932;2023-04-24T02:19:38;52556.72;;;-144.14;88.58
7075;BME280;3578;51.568;6.932;2023-04-24T02:22:05;52574.75;;;-144.14;88.96
7075;BME280;3578;51.568;6.932;2023-04-24T02:24:32;52572.75;;;-144.14;89.22
7075;BME280;3578;51.568;6.932;2023-04-24T02:26:59;52560.72;;;-144.14;89.66
7075;BME280;3578;51.568;6.932;2023-04-24T02:29:28;52588.78;;;-144.14;89.44
7075;BME280;3578;51.568;6.932;2023-04-24T02:31:57;52584.78;;;-144.14;89.53
7075;BME280;3578;51.568;6.932;2023-04-24T02:34:24;52578.75;;;-144.14;89.22
7075;BME280;3578;51.568;6.932;2023-04-24T02:36:51;52612.81;;;-144.14;89.20
7075;BME280;3578;51.568;6.932;2023-04-24T02:39:19;52594.78;;;-144.14;89.50
7075;BME280;3578;51.568;6.932;2023-04-24T02:41:46;52548.72;;;-144.14;89.27
7075;BME280;3578;51.568;6.932;2023-04-24T02:44:13;52598.81;;;-144.14;88.97
7075;BME280;3578;51.568;6.932;2023-04-24T02:46:40;52618.84;;;-144.14;89.25
7075;BME280;3578;51.568;6.932;2023-04-24T02:49:09;52612.81;;;-144.14;89.14
7075;BME280;3578;51.568;6.932;2023-04-24T02:51:37;52578.75;;;-144.14;89.38
7075;BME280;3578;51.568;6.932;2023-04-24T02:54:07;52560.72;;;-144.14;89.11
7075;BME280;3578;51.568;6.932;2023-04-24T02:56:34;52596.81;;;-144.14;89.29
7075;BME280;3578;51.568;6.932;2023-04-24T02:59:01;52590.78;;;-144.14;89.38
7075;BME280;3578;51.568;6.932;2023-04-24T03:01:29;52594.78;;;-144.14;88.84
7075;BME280;3578;51.568;6.932;2023-04-24T03:03:56;52626.84;;;-144.14;88.31
7075;BME280;3578;51.568;6.932;2023-04-24T03:06:25;52626.84;;;-144.14;87.92
7075;BME280;3578;51.568;6.932;2023-04-24T03:08:52;52620.84;;;-144.14;87.99
7075;BME280;3578;51.568;6.932;2023-04-24T03:11:20;52602.81;;;-144.14;88.48
7075;BME280;3578;51.568;6.932;2023-04-24T03:13:47;52596.81;;;-144.14;88.60
7075;BME280;3578;51.568;6.932;2023-04-24T03:16:14;52612.81;;;-144.14;89.30
7075;BME280;3578;51.568;6.932;2023-04-24T03:18:41;52580.78;;;-144.14;89.44
7075;BME280;3578;51.568;6.932;2023-04-24T03:21:08;52592.78;;;-144.14;89.00
7075;BME280;3578;51.568;6.932;2023-04-24T03:23:36;52590.78;;;-144.14;88.95
7075;BME280;3578;51.568;6.932;2023-04-24T03:26:03;52604.81;;;-144.14;89.06
7075;BME280;3578;51.568;6.932;2023-04-24T03:28:31;52616.84;;;-144.14;89.12
7075;BME280;3578;51.568;6.932;2023-04-24T03:30:57;52590.78;;;-144.14;88.92
7075;BME280;3578;51.568;6.932;2023-04-24T03:33:25;52608.81;;;-144.14;88.88
7075;BME280;3578;51.568;6.932;2023-04-24T03:35:52;52584.78;;;-144.14;89.12
7075;BME280;3578;51.568;6.932;2023-04-24T03:38:19;52572.75;;;-144.14;89.34
7075;BME280;3578;51.568;6.932;2023-04-24T03:40:47;52584.78;;;-144.14;89.15
7075;BME280;3578;51.568;6.932;2023-04-24T03:43:14;52604.81;;;-144.14;89.01
7075;BME280;3578;51.568;6.932;2023-04-24T03:45:41;52564.75;;;-144.14;89.49
7075;BME280;3578;51.568;6.932;2023-04-24T03:48:08;52570.75;;;-144.14;89.79
7075;BME280;3578;51.568;6.932;2023-04-24T03:50:35;52588.78;;;-144.14;89.58
7075;BME280;3578;51.568;6.932;2023-04-24T03:53:02;52548.72;;;-144.14;89.58
7075;BME280;3578;51.568;6.932;2023-04-24T03:55:29;52594.78;;;-144.14;89.51
7075;BME280;3578;51.568;6.932;2023-04-24T03:57:57;52560.72;;;-144.14;90.12
7075;BME280;3578;51.568;6.932;2023-04-24T04:00:24;52560.72;;;-144.14;89.66
7075;BME280;3578;51.568;6.932;2023-04-24T04:02:52;52564.75;;;-144.14;90.29
7075;BME280;3578;51.568;6.932;2023-04-24T04:05:19;52562.75;;;-144.14;89.83
7075;BME280;3578;51.568;6.932;2023-04-24T04:07:46;52616.84;;;-144.14;89.69
7075;BME280;3578;51.568;6.932;2023-04-24T04:10:13;52576.75;;;-144.14;89.37
7075;BME280;3578;51.568;6.932;2023-04-24T04:12:40;52572.75;;;-144.14;89.16
7075;BME280;3578;51.568;6.932;2023-04-24T04:15:09;52608.81;;;-144.14;89.38
7075;BME280;3578;51.568;6.932;2023-04-24T04:17:36;52582.78;;;-144.14;89.24
7075;BME280;3578;51.568;6.932;2023-04-24T04:20:06;52582.78;;;-144.14;89.38
7075;BME280;3578;51.568;6.932;2023-04-24T04:22:35;52600.81;;;-144.14;89.44
7075;BME280;3578;51.568;6.932;2023-04-24T04:25:02;52588.78;;;-144.14;89.16
7075;BME280;3578;51.568;6.932;2023-04-24T04:27:30;52604.81;;;-144.14;88.96
7075;BME280;3578;51.568;6.932;2023-04-24T04:29:58;52580.78;;;-144.14;88.71
7075;BME280;3578;51.568;6.932;2023-04-24T04:32:28;52564.75;;;-144.14;89.59
7075;BME280;3578;51.568;6.932;2023-04-24T04:34:55;52602.81;;;-144.14;89.33
7075;BME280;3578;51.568;6.932;2023-04-24T04:37:22;52600.81;;;-144.14;89.03
7075;BME280;3578;51.568;6.932;2023-04-24T04:39:49;52610.81;;;-144.14;88.13
7075;BME280;3578;51.568;6.932;2023-04-24T04:42:15;52618.84;;;-144.14;87.91
7075;BME280;3578;51.568;6.932;2023-04-24T04:44:42;52608.81;;;-144.14;88.76
7075;BME280;3578;51.568;6.932;2023-04-24T04:47:10;52586.78;;;-144.14;88.24
7075;BME280;3578;51.568;6.932;2023-04-24T04:49:38;52596.81;;;-144.14;88.10
7075;BME280;3578;51.568;6.932;2023-04-24T04:52:06;52602.81;;;-144.14;88.37
7075;BME280;3578;51.568;6.932;2023-04-24T04:54:33;52604.81;;;-144.14;88.35
7075;BME280;3578;51.568;6.932;2023-04-24T04:57:00;52616.84;;;-144.14;88.28
7075;BME280;3578;51.568;6.932;2023-04-24T04:59:28;52630.88;;;-144.14;87.42
7075;BME280;3578;51.568;6.932;2023-04-24T05:01:56;52660.91;;;-144.14;86.61
7075;BME280;3578;51.568;6.932;2023-04-24T05:04:23;52634.88;;;-144.14;87.59
7075;BME280;3578;51.568;6.932;2023-04-24T05:06:52;52656.91;;;-144.14;87.34
7075;BME280;3578;51.568;6.932;2023-04-24T05:09:19;52668.94;;;-144.14;86.96
7075;BME280;3578;51.568;6.932;2023-04-24T05:11:46;52612.81;;;-144.14;87.73
7075;BME280;3578;51.568;6.932;2023-04-24T05:14:13;52628.84;;;-144.14;87.76
7075;BME280;3578;51.568;6.932;2023-04-24T05:16:40;52648.91;;;-144.14;87.04
7075;BME280;3578;51.568;6.932;2023-04-24T05:19:07;52658.91;;;-144.14;87.28
7075;BME280;3578;51.568;6.932;2023-04-24T05:21:34;52624.84;;;-144.14;87.45
7075;BME280;3578;51.568;6.932;2023-04-24T05:24:03;52632.88;;;-144.14;87.34
7075;BME280;3578;51.568;6.932;2023-04-24T05:26:30;52640.88;;;-144.14;86.68
7075;BME280;3578;51.568;6.932;2023-04-24T05:28:57;52620.84;;;-144.14;87.41
7075;BME280;3578;51.568;6.932;2023-04-24T05:31:24;52616.84;;;-144.14;87.44
7075;BME280;3578;51.568;6.932;2023-04-24T05:33:51;52630.88;;;-144.14;87.79
7075;BME280;3578;51.568;6.932;2023-04-24T05:36:18;52644.88;;;-144.14;88.27
7075;BME280;3578;51.568;6.932;2023-04-24T05:38:45;52590.78;;;-144.14;89.09
7075;BME280;3578;51.568;6.932;2023-04-24T05:41:13;52568.75;;;-144.14;90.09
7075;BME280;3578;51.568;6.932;2023-04-24T05:43:41;52576.75;;;-144.14;90.37
7075;BME280;3578;51.568;6.932;2023-04-24T05:46:08;52558.72;;;-144.14;90.85
7075;BME280;3578;51.568;6.932;2023-04-24T05:48:35;52560.72;;;-144.14;90.84
7075;BME280;3578;51.568;6.932;2023-04-24T05:51:02;52552.72;;;-144.14;91.11
7075;BME280;3578;51.568;6.932;2023-04-24T05:53:28;52540.69;;;-144.14;90.73
7075;BME280;3578;51.568;6.932;2023-04-24T05:55:56;52560.72;;;-144.14;91.21
7075;BME280;3578;51.568;6.932;2023-04-24T05:58:24;52558.72;;;-144.14;91.51
7075;BME280;3578;51.568;6.932;2023-04-24T06:00:51;52526.66;;;-144.14;91.42
7075;BME280;3578;51.568;6.932;2023-04-24T06:03:18;52540.69;;;-144.14;91.60
7075;BME280;3578;51.568;6.932;2023-04-24T06:05:45;52568.75;;;-144.14;91.35
7075;BME280;3578;51.568;6.932;2023-04-24T06:08:12;52524.66;;;-144.14;91.28
7075;BME280;3578;51.568;6.932;2023-04-24T06:10:39;52548.72;;;-144.14;91.29
7075;BME280;3578;51.568;6.932;2023-04-24T06:13:06;52552.72;;;-144.14;91.34
7075;BME280;3578;51.568;6.932;2023-04-24T06:15:35;52572.75;;;-144.14;91.80
7075;BME280;3578;51.568;6.932;2023-04-24T06:18:02;52596.81;;;-144.14;90.81
7075;BME280;3578;51.568;6.932;2023-04-24T06:20:29;52618.84;;;-144.14;90.81
7075;BME280;3578;51.568;6.932;2023-04-24T06:22:56;52600.81;;;-144.14;91.52
7075;BME280;3578;51.568;6.932;2023-04-24T06:25:25;52580.78;;;-144.14;92.11
7075;BME280;3578;51.568;6.932;2023-04-24T06:27:52;52536.69;;;-144.14;92.72
7075;BME280;3578;51.568;6.932;2023-04-24T06:30:20;52534.69;;;-144.14;93.52
7075;BME280;3578;51.568;6.932;2023-04-24T06:32:48;52528.69;;;-144.14;93.91
7075;BME280;3578;51.568;6.932;2023-04-24T06:35:15;52550.72;;;-144.14;94.80
7075;BME280;3578;51.568;6.932;2023-04-24T06:37:43;52508.63;;;-144.14;95.41
7075;BME280;3578;51.568;6.932;2023-04-24T06:40:10;52476.59;;;-144.14;95.77
7075;BME280;3578;51.568;6.932;2023-04-24T06:42:37;52464.56;;;-144.14;95.49
7075;BME280;3578;51.568;6.932;2023-04-24T06:45:05;52478.59;;;-144.14;95.53
7075;BME280;3578;51.568;6.932;2023-04-24T06:47:32;52476.59;;;-144.14;95.45
7075;BME280;3578;51.568;6.932;2023-04-24T06:50:00;52464.56;;;-144.14;95.88
7075;BME280;3578;51.568;6.932;2023-04-24T06:52:27;52510.66;;;-144.14;95.09
7075;BME280;3578;51.568;6.932;2023-04-24T06:55:00;52524.66;;;-144.14;94.19
7075;BME280;3578;51.568;6.932;2023-04-24T06:57:28;52516.66;;;-144.14;94.09
7075;BME280;3578;51.568;6.932;2023-04-24T06:59:55;52506.63;;;-144.14;94.23
7075;BME280;3578;51.568;6.932;2023-04-24T07:02:22;52472.56;;;-144.14;94.73
7075;BME280;3578;51.568;6.932;2023-04-24T07:04:49;52488.59;;;-144.14;94.91
7075;BME280;3578;51.568;6.932;2023-04-24T07:07:18;52464.56;;;-144.14;95.00
7075;BME280;3578;51.568;6.932;2023-04-24T07:09:44;52512.66;;;-144.14;95.21
7075;BME280;3578;51.568;6.932;2023-04-24T07:12:11;52468.56;;;-144.14;95.11
7075;BME280;3578;51.568;6.932;2023-04-24T07:14:39;52426.50;;;-144.14;95.05
7075;BME280;3578;51.568;6.932;2023-04-24T07:17:06;52452.53;;;-144.14;94.99
7075;BME280;3578;51.568;6.932;2023-04-24T07:19:33;52444.53;;;-144.14;94.99
7075;BME280;3578;51.568;6.932;2023-04-24T07:22:00;52436.50;;;-144.14;94.06
7075;BME280;3578;51.568;6.932;2023-04-24T07:24:30;52456.53;;;-144.14;94.38
7075;BME280;3578;51.568;6.932;2023-04-24T07:26:58;52448.53;;;-144.14;94.48
7075;BME280;3578;51.568;6.932;2023-04-24T07:29:26;52442.53;;;-144.14;94.54
7075;BME280;3578;51.568;6.932;2023-04-24T07:31:53;52446.53;;;-144.14;94.98
7075;BME280;3578;51.568;6.932;2023-04-24T07:34:20;52434.50;;;-144.14;94.78
7075;BME280;3578;51.568;6.932;2023-04-24T07:36:47;52434.50;;;-144.14;94.65
7075;BME280;3578;51.568;6.932;2023-04-24T07:39:14;52456.53;;;-144.14;93.81
7075;BME280;3578;51.568;6.932;2023-04-24T07:41:42;52448.53;;;-144.14;93.87
7075;BME280;3578;51.568;6.932;2023-04-24T07:44:10;52456.53;;;-144.14;93.80
7075;BME280;3578;51.568;6.932;2023-04-24T07:46:37;52422.47;;;-144.14;93.49
7075;BME280;3578;51.568;6.932;2023-04-24T07:49:04;52496.63;;;-144.14;92.99
7075;BME280;3578;51.568;6.932;2023-04-24T07:51:31;52518.66;;;-144.14;92.37
7075;BME280;3578;51.568;6.932;2023-04-24T07:54:03;52516.66;;;-144.14;92.32
7075;BME280;3578;51.568;6.932;2023-04-24T07:56:31;52498.63;;;-144.14;92.67
7075;BME280;3578;51.568;6.932;2023-04-24T07:59:00;52494.63;;;-144.14;92.84
7075;BME280;3578;51.568;6.932;2023-04-24T08:01:27;52490.59;;;-144.14;92.69
7075;BME280;3578;51.568;6.932;2023-04-24T08:03:54;52478.59;;;-144.14;93.58
7075;BME280;3578;51.568;6.932;2023-04-24T08:06:21;52464.56;;;-144.14;93.85
7075;BME280;3578;51.568;6.932;2023-04-24T08:08:48;52460.56;;;-144.14;94.11
7075;BME280;3578;51.568;6.932;2023-04-24T08:11:17;52426.50;;;-144.14;94.65
7075;BME280;3578;51.568;6.932;2023-04-24T08:13:44;52384.41;;;-144.14;95.49
7075;BME280;3578;51.568;6.932;2023-04-24T08:16:12;52398.44;;;-144.14;95.57
7075;BME280;3578;51.568;6.932;2023-04-24T08:18:40;52396.44;;;-144.14;96.03
7075;BME280;3578;51.568;6.932;2023-04-24T08:21:07;52346.34;;;-144.14;96.73
7075;BME280;3578;51.568;6.932;2023-04-24T08:23:34;52372.38;;;-144.14;96.89
7075;BME280;3578;51.568;6.932;2023-04-24T08:26:01;52302.28;;;-144.14;97.16
7075;BME280;3578;51.568;6.932;2023-04-24T08:28:28;52344.34;;;-144.14;97.44
7075;BME280;3578;51.568;6.932;2023-04-24T08:30:55;52276.22;;;-144.14;97.80
7075;BME280;3578;51.568;6.932;2023-04-24T08:33:24;52290.25;;;-144.14;97.91
7075;BME280;3578;51.568;6.932;2023-04-24T08:35:52;52250.19;;;-144.14;98.47
7075;BME280;3578;51.568;6.932;2023-04-24T08:38:19;52232.16;;;-144.14;98.30
7075;BME280;3578;51.568;6.932;2023-04-24T08:40:47;52240.16;;;-144.14;98.15
7075;BME280;3578;51.568;6.932;2023-04-24T08:43:16;52226.13;;;-144.14;98.18
7075;BME280;3578;51.568;6.932;2023-04-24T08:45:43;52236.16;;;-144.14;98.34
7075;BME280;3578;51.568;6.932;2023-04-24T08:48:10;52208.09;;;-144.14;98.61
7075;BME280;3578;51.568;6.932;2023-04-24T08:50:40;52196.09;;;-144.14;98.40
7075;BME280;3578;51.568;6.932;2023-04-24T08:53:09;52174.03;;;-144.14;98.33
7075;BME280;3578;51.568;6.932;2023-04-24T08:55:36;52137.97;;;-144.14;98.51
7075;BME280;3578;51.568;6.932;2023-04-24T08:58:04;52202.09;;;-144.14;98.00
7075;BME280;3578;51.568;6.932;2023-04-24T09:00:32;52214.13;;;-144.14;97.80
7075;BME280;3578;51.568;6.932;2023-04-24T09:03:01;52238.16;;;-144.14;97.45
7075;BME280;3578;51.568;6.932;2023-04-24T09:05:28;52198.09;;;-144.14;97.96
7075;BME280;3578;51.568;6.932;2023-04-24T09:07:57;52180.06;;;-144.14;98.00
7075;BME280;3578;51.568;6.932;2023-04-24T09:10:25;52210.09;;;-144.14;97.96
7075;BME280;3578;51.568;6.932;2023-04-24T09:12:54;52214.13;;;-144.14;97.84
7075;BME280;3578;51.568;6.932;2023-04-24T09:15:22;52220.13;;;-144.14;97.58
7075;BME280;3578;51.568;6.932;2023-04-24T09:17:49;52248.19;;;-144.14;97.40
7075;BME280;3578;51.568;6.932;2023-04-24T09:20:16;52206.09;;;-144.14;97.58
7075;BME280;3578;51.568;6.932;2023-04-24T09:22:45;52232.16;;;-144.14;97.62
7075;BME280;3578;51.568;6.932;2023-04-24T09:25:13;52200.09;;;-144.14;97.99
7075;BME280;3578;51.568;6.932;2023-04-24T09:27:44;52174.03;;;-144.14;97.57
7075;BME280;3578;51.568;6.932;2023-04-24T09:30:13;52200.09;;;-144.14;97.26
7075;BME280;3578;51.568;6.932;2023-04-24T09:32:40;52180.06;;;-144.14;97.67
7075;BME280;3578;51.568;6.932;2023-04-24T09:35:11;52144.00;;;-144.14;97.84
7075;BME280;3578;51.568;6.932;2023-04-24T09:37:40;52154.00;;;-144.14;96.84
7075;BME280;3578;51.568;6.932;2023-04-24T09:40:10;52166.03;;;-144.14;97.33
7075;BME280;3578;51.568;6.932;2023-04-24T09:42:39;52127.97;;;-144.14;97.69
7075;BME280;3578;51.568;6.932;2023-04-24T09:45:10;52095.91;;;-144.14;98.24
7075;BME280;3578;51.568;6.932;2023-04-24T09:47:37;52075.88;;;-144.14;98.46
7075;BME280;3578;51.568;6.932;2023-04-24T09:50:13;51999.75;;;-144.14;98.96
7075;BME280;3578;51.568;6.932;2023-04-24T09:52:43;51951.66;;;-144.14;99.54
7075;BME280;3578;51.568;6.932;2023-04-24T09:55:13;51935.63;;;-144.14;98.99
7075;BME280;3578;51.568;6.932;2023-04-24T09:57:49;51873.53;;;-144.14;99.46
7075;BME280;3578;51.568;6.932;2023-04-24T10:00:22;51833.47;;;-144.14;99.66
7075;BME280;3578;51.568;6.932;2023-04-24T10:02:54;51765.38;;;-144.14;99.92
7075;BME280;3578;51.568;6.932;2023-04-24T10:05:24;51653.19;;;-144.14;100.00
7075;BME280;3578;51.568;6.932;2023-04-24T10:07:57;51581.06;;;-144.14;100.00
7075;BME280;3578;51.568;6.932;2023-04-24T10:10:25;51418.81;;;-144.14;100.00
7075;BME280;3578;51.568;6.932;2023-04-24T10:12:53;51290.63;;;-144.14;100.00
7075;BME280;3578;51.568;6.932;2023-04-24T10:15:21;51142.41;;;-144.14;100.00
7075;BME280;3578;51.568;6.932;2023-04-24T10:17:49;51012.25;;;-144.14;100.00
7075;BME280;3578;51.568;6.932;2023-04-24T10:20:20;50872.03;;;-144.14;100.00
7075;BME280;3578;51.568;6.932;2023-04-24T10:22:49;50906.09;;;-144.14;100.00
7075;BME280;3578;51.568;6.932;2023-04-24T10:25:20;50856.03;;;-144.14;100.00
7075;BME280;3578;51.568;6.932;2023-04-24T10:27:49;50759.91;;;-144.14;100.00
7075;BME280;3578;51.568;6.932;2023-04-24T10:30:19;50890.06;;;-144.14;100.00
7075;BME280;3578;51.568;6.932;2023-04-24T10:32:46;50960.16;;;-144.14;100.00
7075;BME280;3578;51.568;6.932;2023-04-24T10:35:15;51010.25;;;-144.14;100.00
7075;BME280;3578;51.568;6.932;2023-04-24T10:37:48;51008.22;;;-144.14;100.00
7075;BME280;3578;51.568;6.932;2023-04-24T10:40:18;50982.19;;;-144.14;100.00
7075;BME280;3578;51.568;6.932;2023-04-24T10:42:48;50848.00;;;-144.14;100.00
7075;BME280;3578;51.568;6.932;2023-04-24T10:45:21;50834.00;;;-144.14;100.00
7075;BME280;3578;51.568;6.932;2023-04-24T10:47:56;50671.78;;;-144.14;100.00
7075;BME280;3578;51.568;6.932;2023-04-24T10:50:28;50535.63;;;-144.14;100.00
7075;BME280;3578;51.568;6.932;2023-04-24T10:53:07;50435.50;;;-144.14;100.00
7075;BME280;3578;51.568;6.932;2023-04-24T10:55:43;50423.47;;;-144.14;100.00
7075;BME280;3578;51.568;6.932;2023-04-24T10:58:11;50477.53;;;-144.14;100.00
7075;BME280;3578;51.568;6.932;2023-04-24T11:00:41;50533.63;;;-144.14;100.00
7075;BME280;3578;51.568;6.932;2023-04-24T11:03:26;50463.53;;;-144.14;100.00
7075;BME280;3578;51.568;6.932;2023-04-24T11:05:56;50369.41;;;-144.14;100.00
7075;BME280;3578;51.568;6.932;2023-04-24T11:08:30;50203.22;;;-144.14;100.00
7075;BME280;3578;51.568;6.932;2023-04-24T11:11:00;50133.13;;;-144.14;100.00
7075;BME280;3578;51.568;6.932;2023-04-24T11:14:01;50149.16;;;-144.14;100.00
7075;BME280;3578;51.568;6.932;2023-04-24T11:16:31;50329.38;;;-144.14;100.00
7075;BME280;3578;51.568;6.932;2023-04-24T11:19:05;50960.16;;;-144.14;99.43
7075;BME280;3578;51.568;6.932;2023-04-24T11:21:39;51142.41;;;-144.14;98.78
7075;BME280;3578;51.568;6.932;2023-04-24T11:24:31;51210.53;;;-144.14;98.40
7075;BME280;3578;51.568;6.932;2023-04-24T11:27:06;51669.22;;;-144.14;93.26
7075;BME280;3578;51.568;6.932;2023-04-24T11:29:43;51789.41;;;-144.14;91.74
7075;BME280;3578;51.568;6.932;2023-04-24T11:32:25;51827.47;;;-144.14;91.78
7075;BME280;3578;51.568;6.932;2023-04-24T11:34:55;51835.47;;;-144.14;91.83
7075;BME280;3578;51.568;6.932;2023-04-24T11:37:24;51843.50;;;-144.14;92.72
7075;BME280;3578;51.568;6.932;2023-04-24T11:39:53;51953.66;;;-144.14;89.73
7075;BME280;3578;51.568;6.932;2023-04-24T11:42:21;51985.72;;;-144.14;89.96
7075;BME280;3578;51.568;6.932;2023-04-24T11:44:49;51955.69;;;-144.14;90.17
7075;BME280;3578;51.568;6.932;2023-04-24T11:47:18;51993.75;;;-144.14;88.57
7075;BME280;3578;51.568;6.932;2023-04-24T11:49:45;52057.84;;;-144.14;87.65
7075;BME280;3578;51.568;6.932;2023-04-24T11:52:15;51969.69;;;-144.14;88.74
7075;BME280;3578;51.568;6.932;2023-04-24T11:54:48;52073.88;;;-144.14;88.45
7075;BME280;3578;51.568;6.932;2023-04-24T11:57:16;52073.88;;;-144.14;87.77
7075;BME280;3578;51.568;6.932;2023-04-24T11:59:45;52144.00;;;-144.14;87.48
7075;BME280;3578;51.568;6.932;2023-04-24T12:02:22;52198.09;;;-144.14;85.64
7075;BME280;3578;51.568;6.932;2023-04-24T12:04:49;52240.16;;;-144.14;86.49
7075;BME280;3578;51.568;6.932;2023-04-24T12:07:16;52274.22;;;-144.14;85.25
7075;BME280;3578;51.568;6.932;2023-04-24T12:09:45;52268.22;;;-144.14;87.19
7075;BME280;3578;51.568;6.932;2023-04-24T12:12:14;52304.28;;;-144.14;85.62
7075;BME280;3578;51.568;6.932;2023-04-24T12:14:48;52480.59;;;-144.14;80.50
7075;BME280;3578;51.568;6.932;2023-04-24T12:17:16;52432.50;;;-144.14;81.87
7075;BME280;3578;51.568;6.932;2023-04-24T12:19:48;52446.53;;;-144.14;80.40
7075;BME280;3578;51.568;6.932;2023-04-24T12:22:16;52376.41;;;-144.14;82.93
7075;BME280;3578;51.568;6.932;2023-04-24T12:25:00;52372.38;;;-144.14;84.08
7075;BME280;3578;51.568;6.932;2023-04-24T12:27:30;52312.28;;;-144.14;86.41
7075;BME280;3578;51.568;6.932;2023-04-24T12:29:59;52310.28;;;-144.14;86.83
7075;BME280;3578;51.568;6.932;2023-04-24T12:32:27;52242.16;;;-144.14;87.91
7075;BME280;3578;51.568;6.932;2023-04-24T12:34:56;52236.16;;;-144.14;88.45
7075;BME280;3578;51.568;6.932;2023-04-24T12:37:25;52264.19;;;-144.14;87.70
7075;BME280;3578;51.568;6.932;2023-04-24T12:40:04;52324.31;;;-144.14;87.17
7075;BME280;3578;51.568;6.932;2023-04-24T12:42:32;52360.38;;;-144.14;86.41
7075;BME280;3578;51.568;6.932;2023-04-24T12:45:02;52462.56;;;-144.14;81.18
7075;BME280;3578;51.568;6.932;2023-04-24T12:47:31;52544.69;;;-144.14;79.49
7075;BME280;3578;51.568;6.932;2023-04-24T12:49:59;52582.78;;;-144.14;79.74
7075;BME280;3578;51.568;6.932;2023-04-24T12:52:28;52584.78;;;-144.14;78.02
7075;BME280;3578;51.568;6.932;2023-04-24T12:54:57;52572.75;;;-144.14;80.20
7075;BME280;3578;51.568;6.932;2023-04-24T12:57:25;52564.75;;;-144.14;81.41
7075;BME280;3578;51.568;6.932;2023-04-24T12:59:54;52496.63;;;-144.14;81.19
7075;BME280;3578;51.568;6.932;2023-04-24T13:02:21;52552.72;;;-144.14;79.48
7075;BME280;3578;51.568;6.932;2023-04-24T13:04:48;52504.63;;;-144.14;81.33
7075;BME280;3578;51.568;6.932;2023-04-24T13:07:17;52480.59;;;-144.14;83.22